createdAt,value
2019-03-28T00:00:56.924Z,102983.00
2019-03-28T00:03:27.098Z,102982.98
2019-03-28T00:05:56.890Z,102982.56
2019-03-28T00:08:26.605Z,102988.41
2019-03-28T00:10:56.387Z,102987.88
2019-03-28T00:13:26.122Z,102979.37
2019-03-28T00:15:55.834Z,102989.75
2019-03-28T00:18:25.554Z,102986.20
2019-03-28T00:20:55.301Z,102983.85
2019-03-28T00:23:26.671Z,102991.12
2019-03-28T00:25:56.440Z,102989.83
2019-03-28T00:28:27.157Z,102997.48
2019-03-28T00:30:57.003Z,102994.47
2019-03-28T00:33:26.727Z,102993.89
2019-03-28T00:35:56.439Z,102994.87
2019-03-28T00:38:26.148Z,103000.81
2019-03-28T00:40:56.466Z,103001.73
2019-03-28T00:43:26.240Z,102999.45
2019-03-28T00:45:56.277Z,102990.33
2019-03-28T00:48:27.135Z,102997.59
2019-03-28T00:51:34.689Z,103002.22
2019-03-28T00:54:04.510Z,103005.39
2019-03-28T00:56:46.526Z,103004.52
2019-03-28T00:59:05.697Z,103010.86
2019-03-28T01:01:35.400Z,103012.75
2019-03-28T01:04:05.390Z,103010.02
2019-03-28T01:06:35.158Z,103010.04
2019-03-28T01:09:07.584Z,103012.72
2019-03-28T01:11:37.350Z,103019.48
2019-03-28T01:14:07.140Z,103023.14
2019-03-28T01:16:36.896Z,103020.17
2019-03-28T01:19:06.699Z,103021.95
2019-03-28T01:21:36.393Z,103025.08
2019-03-28T01:24:06.109Z,103027.76
2019-03-28T01:26:35.795Z,103030.83
2019-03-28T01:29:06.963Z,103020.09
2019-03-28T01:31:36.735Z,103014.73
2019-03-28T01:34:06.459Z,103022.87
2019-03-28T01:36:36.335Z,103024.28
2019-03-28T01:39:06.744Z,103017.45
2019-03-28T01:41:36.435Z,103026.14
2019-03-28T01:44:06.158Z,103021.58
2019-03-28T01:46:35.847Z,103027.84
2019-03-28T01:49:05.569Z,103028.28
2019-03-28T01:51:35.444Z,103029.21
2019-03-28T01:54:05.166Z,103029.62
2019-03-28T01:56:34.860Z,103025.22
2019-03-28T01:59:04.654Z,103023.86
2019-03-28T02:01:34.517Z,103016.94
2019-03-28T02:04:04.306Z,103024.58
2019-03-28T02:06:34.280Z,103025.64
2019-03-28T02:09:06.214Z,103020.67
2019-03-28T02:11:36.145Z,103025.08
2019-03-28T02:14:05.937Z,103021.08
2019-03-28T02:16:35.643Z,103022.77
2019-03-28T02:19:05.456Z,103019.30
2019-03-28T02:21:35.916Z,103020.15
2019-03-28T02:24:05.693Z,103019.22
2019-03-28T02:26:35.409Z,103025.64
2019-03-28T02:29:05.191Z,103019.64
2019-03-28T02:31:34.966Z,103022.70
2019-03-28T02:34:04.688Z,103020.94
2019-03-28T02:36:34.389Z,103028.19
2019-03-28T02:39:05.928Z,103027.68
2019-03-28T02:41:35.686Z,103035.88
2019-03-28T02:44:05.483Z,103029.56
2019-03-28T02:46:35.187Z,103036.37
2019-03-28T02:49:04.993Z,103031.41
2019-03-28T02:51:34.697Z,103031.39
2019-03-28T02:54:05.489Z,103035.53
2019-03-28T02:56:35.358Z,103030.13
2019-03-28T02:59:05.114Z,103023.64
2019-03-28T03:01:34.788Z,103027.28
2019-03-28T03:04:04.577Z,103028.28
2019-03-28T03:06:34.281Z,103026.91
2019-03-28T03:09:05.678Z,103025.05
2019-03-28T03:11:35.779Z,103031.89
2019-03-28T03:14:05.911Z,103029.19
2019-03-28T03:16:35.701Z,103024.47
2019-03-28T03:19:05.411Z,103027.70
2019-03-28T03:21:35.910Z,103020.52
2019-03-28T03:24:05.904Z,103021.02
2019-03-28T03:26:35.618Z,103023.12
2019-03-28T03:29:05.446Z,103016.86
2019-03-28T03:31:35.166Z,103022.13
2019-03-28T03:34:05.289Z,103027.96
2019-03-28T03:36:35.574Z,103025.77
2019-03-28T03:39:07.621Z,103025.23
2019-03-28T03:41:37.405Z,103033.35
2019-03-28T03:44:07.137Z,103038.23
2019-03-28T03:46:36.852Z,103034.70
2019-03-28T03:49:06.622Z,103041.39
2019-03-28T03:51:37.349Z,103038.28
2019-03-28T03:54:07.048Z,103045.00
2019-03-28T03:56:36.779Z,103047.33
2019-03-28T03:59:06.466Z,103045.10
2019-03-28T04:01:36.260Z,103041.05
2019-03-28T04:04:06.126Z,103035.72
2019-03-28T04:06:35.850Z,103038.78
2019-03-28T04:09:06.897Z,103030.16
2019-03-28T04:11:36.612Z,103037.17
2019-03-28T04:14:06.322Z,103027.86
2019-03-28T04:16:36.120Z,103026.16
2019-03-28T04:19:06.127Z,103025.23
2019-03-28T04:21:35.863Z,103034.36
2019-03-28T04:24:05.639Z,103030.73
2019-03-28T04:26:35.503Z,103031.17
2019-03-28T04:29:05.296Z,103040.72
2019-03-28T04:31:35.003Z,103050.11
2019-03-28T04:34:07.778Z,103044.67
2019-03-28T04:36:36.118Z,103055.92
2019-03-28T04:39:06.290Z,103063.27
2019-03-28T04:41:36.180Z,103070.03
2019-03-28T04:44:05.902Z,103066.27
2019-03-28T04:46:35.615Z,103065.80
2019-03-28T04:49:05.310Z,103066.22
2019-03-28T04:51:35.069Z,103065.73
2019-03-28T04:54:04.926Z,103068.86
2019-03-28T04:56:34.644Z,103067.06
2019-03-28T04:59:04.344Z,103076.64
2019-03-28T05:01:34.086Z,103072.60
2019-03-28T05:04:03.823Z,103075.69
2019-03-28T05:06:33.539Z,103074.37
2019-03-28T05:09:04.282Z,103077.59
2019-03-28T05:11:34.021Z,103081.63
2019-03-28T05:14:03.849Z,103082.39
2019-03-28T05:16:33.575Z,103081.97
2019-03-28T05:19:03.290Z,103078.34
2019-03-28T05:21:33.000Z,103084.15
2019-03-28T05:24:02.706Z,103084.67
2019-03-28T05:26:32.426Z,103087.30
2019-03-28T05:29:02.138Z,103094.91
2019-03-28T05:31:31.919Z,103096.14
2019-03-28T05:34:01.634Z,103102.06
2019-03-28T05:36:31.359Z,103103.47
2019-03-28T05:39:01.124Z,103106.22
2019-03-28T05:41:30.914Z,103108.95
2019-03-28T05:44:00.616Z,103108.09
2019-03-28T05:46:30.346Z,103109.45
2019-03-28T05:49:00.052Z,103104.44
2019-03-28T05:51:32.885Z,103109.88
2019-03-28T05:54:02.600Z,103106.16
2019-03-28T05:56:32.315Z,103110.23
2019-03-28T05:59:10.744Z,103113.73
2019-03-28T06:01:33.487Z,103119.57
2019-03-28T06:04:03.207Z,103119.89
2019-03-28T06:06:32.927Z,103127.03
2019-03-28T06:09:02.639Z,103124.30
2019-03-28T06:11:32.397Z,103128.30
2019-03-28T06:14:02.115Z,103123.66
2019-03-28T06:16:31.827Z,103123.23
2019-03-28T06:19:01.540Z,103129.41
2019-03-28T06:21:31.270Z,103130.18
2019-03-28T06:24:00.984Z,103129.41
2019-03-28T06:26:30.710Z,103140.64
2019-03-28T06:29:00.625Z,103138.89
2019-03-28T06:31:30.357Z,103147.84
2019-03-28T06:34:00.552Z,103143.38
2019-03-28T06:36:30.469Z,103145.13
2019-03-28T06:39:00.191Z,103147.78
2019-03-28T06:41:29.888Z,103140.98
2019-03-28T06:43:59.614Z,103147.59
2019-03-28T06:46:29.327Z,103138.52
2019-03-28T06:48:59.059Z,103132.17
2019-03-28T06:51:28.947Z,103137.84
2019-03-28T06:53:58.745Z,103138.80
2019-03-28T06:56:28.462Z,103144.20
2019-03-28T06:59:04.379Z,103149.98
2019-03-28T07:01:38.500Z,103147.69
2019-03-28T07:04:08.694Z,103154.78
2019-03-28T07:06:38.402Z,103151.59
2019-03-28T07:09:09.177Z,103156.05
2019-03-28T07:11:38.885Z,103151.98
2019-03-28T07:14:08.600Z,103162.66
2019-03-28T07:16:38.311Z,103155.91
2019-03-28T07:19:08.059Z,103156.73
2019-03-28T07:21:37.787Z,103161.16
2019-03-28T07:24:07.578Z,103159.35
2019-03-28T07:26:37.364Z,103168.27
2019-03-28T07:29:07.085Z,103176.80
2019-03-28T07:31:36.781Z,103175.41
2019-03-28T07:34:06.558Z,103174.48
2019-03-28T07:36:36.263Z,103169.48
2019-03-28T07:39:07.432Z,103167.73
2019-03-28T07:41:37.117Z,103169.41
2019-03-28T07:44:06.871Z,103172.47
2019-03-28T07:46:36.562Z,103176.17
2019-03-28T07:49:06.299Z,103183.38
2019-03-28T07:51:36.017Z,103180.18
2019-03-28T07:54:05.764Z,103188.79
2019-03-28T07:56:35.512Z,103194.06
2019-03-28T07:59:05.294Z,103194.41
2019-03-28T08:01:34.997Z,103200.64
2019-03-28T08:04:04.787Z,103189.20
2019-03-28T08:06:34.543Z,103189.56
2019-03-28T08:09:05.852Z,103190.65
2019-03-28T08:11:35.634Z,103189.66
2019-03-28T08:14:05.566Z,103198.94
2019-03-28T08:16:35.329Z,103199.90
2019-03-28T08:19:07.832Z,103205.72
2019-03-28T08:21:36.506Z,103202.08
2019-03-28T08:24:06.291Z,103201.05
2019-03-28T08:26:36.002Z,103201.81
2019-03-28T08:29:05.809Z,103198.16
2019-03-28T08:31:36.392Z,103198.29
2019-03-28T08:34:06.297Z,103201.84
2019-03-28T08:36:36.558Z,103196.34
2019-03-28T08:39:07.319Z,103199.31
2019-03-28T08:41:37.010Z,103207.42
2019-03-28T08:44:07.444Z,103212.57
2019-03-28T08:46:37.198Z,103214.86
2019-03-28T08:49:06.910Z,103214.61
2019-03-28T08:51:36.649Z,103217.33
2019-03-28T08:54:06.373Z,103223.89
2019-03-28T08:56:36.086Z,103229.50
2019-03-28T08:59:05.803Z,103236.47
2019-03-28T09:01:35.634Z,103232.83
2019-03-28T09:04:05.349Z,103241.80
2019-03-28T09:06:35.046Z,103235.63
2019-03-28T09:09:06.511Z,103236.50
2019-03-28T09:11:36.202Z,103236.31
2019-03-28T09:14:05.904Z,103238.78
2019-03-28T09:16:35.625Z,103251.16
2019-03-28T09:19:05.354Z,103254.21
2019-03-28T09:21:35.061Z,103260.48
2019-03-28T09:24:04.948Z,103261.32
2019-03-28T09:26:34.648Z,103263.19
2019-03-28T09:29:04.501Z,103265.30
2019-03-28T09:31:34.263Z,103262.17
2019-03-28T09:34:04.073Z,103261.59
2019-03-28T09:36:33.891Z,103263.79
2019-03-28T09:39:04.655Z,103261.49
2019-03-28T09:41:34.349Z,103271.84
2019-03-28T09:44:04.141Z,103270.97
2019-03-28T09:46:33.916Z,103269.87
2019-03-28T09:49:03.704Z,103268.87
2019-03-28T09:51:35.288Z,103268.38
2019-03-28T09:54:05.048Z,103271.48
2019-03-28T09:56:34.772Z,103265.05
2019-03-28T09:59:04.614Z,103264.73
2019-03-28T10:01:34.334Z,103252.11
2019-03-28T10:04:06.460Z,103264.48
2019-03-28T10:06:35.496Z,103255.27
2019-03-28T10:09:06.753Z,103256.63
2019-03-28T10:11:36.465Z,103265.29
2019-03-28T10:14:06.223Z,103263.52
2019-03-28T10:16:36.031Z,103262.58
2019-03-28T10:19:05.799Z,103267.08
2019-03-28T10:21:37.457Z,103262.27
2019-03-28T10:24:06.989Z,103265.48
2019-03-28T10:26:36.765Z,103261.85
2019-03-28T10:29:06.547Z,103267.50
2019-03-28T10:31:36.375Z,103270.11
2019-03-28T10:34:06.067Z,103275.52
2019-03-28T10:36:35.802Z,103277.81
2019-03-28T10:39:07.535Z,103269.97
2019-03-28T10:41:39.836Z,103268.75
2019-03-28T10:44:08.756Z,103272.32
2019-03-28T10:46:38.460Z,103270.94
2019-03-28T10:49:08.179Z,103271.80
2019-03-28T10:51:43.762Z,103272.12
2019-03-28T10:54:19.966Z,103267.89
2019-03-28T10:56:52.062Z,103265.81
2019-03-28T10:59:23.353Z,103268.11
2019-03-28T11:01:50.696Z,103271.05
2019-03-28T11:04:19.404Z,103279.20
2019-03-28T11:06:49.202Z,103268.02
2019-03-28T11:09:18.918Z,103267.19
2019-03-28T11:11:48.648Z,103268.35
2019-03-28T11:14:18.419Z,103261.55
2019-03-28T11:16:48.517Z,103265.73
2019-03-28T11:19:18.295Z,103266.88
2019-03-28T11:21:48.150Z,103258.20
2019-03-28T11:24:20.949Z,103262.36
2019-03-28T11:26:50.796Z,103261.84
2019-03-28T11:29:20.588Z,103268.37
2019-03-28T11:31:52.283Z,103265.23
2019-03-28T11:34:21.737Z,103265.61
2019-03-28T11:36:51.540Z,103265.09
2019-03-28T11:39:21.265Z,103262.07
2019-03-28T11:41:51.001Z,103267.93
2019-03-28T11:44:20.706Z,103269.77
2019-03-28T11:46:50.435Z,103268.30
2019-03-28T11:49:20.154Z,103273.55
2019-03-28T11:51:49.898Z,103268.11
2019-03-28T11:54:19.631Z,103268.72
2019-03-28T11:56:49.386Z,103265.09
2019-03-28T11:59:19.124Z,103266.68
2019-03-28T12:01:59.374Z,103273.78
2019-03-28T12:04:20.321Z,103268.30
2019-03-28T12:06:50.659Z,103266.16
2019-03-28T12:09:20.416Z,103265.93
2019-03-28T12:11:52.745Z,103268.88
2019-03-28T12:14:21.633Z,103271.52
2019-03-28T12:16:51.344Z,103263.05
2019-03-28T12:19:21.070Z,103262.64
2019-03-28T12:21:50.839Z,103263.05
2019-03-28T12:24:20.563Z,103255.42
2019-03-28T12:26:50.276Z,103260.56
2019-03-28T12:29:19.977Z,103263.81
2019-03-28T12:31:49.766Z,103259.55
2019-03-28T12:34:19.481Z,103263.09
2019-03-28T12:36:49.285Z,103268.16
2019-03-28T12:39:19.014Z,103261.77
2019-03-28T12:41:48.802Z,103259.08
2019-03-28T12:44:18.591Z,103259.20
2019-03-28T12:46:48.305Z,103263.36
2019-03-28T12:49:18.136Z,103263.36
2019-03-28T12:51:47.896Z,103263.84
2019-03-28T12:54:17.671Z,103259.16
2019-03-28T12:56:47.465Z,103256.86
2019-03-28T12:59:17.199Z,103255.84
2019-03-28T13:01:46.915Z,103259.04
2019-03-28T13:04:16.635Z,103260.41
2019-03-28T13:06:46.421Z,103259.64
2019-03-28T13:09:16.199Z,103262.47
2019-03-28T13:11:45.967Z,103259.57
2019-03-28T13:14:15.733Z,103247.93
2019-03-28T13:16:45.513Z,103254.24
2019-03-28T13:19:15.199Z,103247.67
2019-03-28T13:21:44.923Z,103261.34
2019-03-28T13:24:14.629Z,103248.81
2019-03-28T13:26:44.365Z,103249.11
2019-03-28T13:29:14.116Z,103254.17
2019-03-28T13:31:43.818Z,103245.36
2019-03-28T13:34:13.503Z,103248.52
2019-03-28T13:36:43.315Z,103252.08
2019-03-28T13:39:12.985Z,103249.48
2019-03-28T13:41:44.345Z,103243.19
2019-03-28T13:44:14.373Z,103244.30
2019-03-28T13:46:44.087Z,103240.58
2019-03-28T13:49:13.790Z,103244.50
2019-03-28T13:51:43.649Z,103242.02
2019-03-28T13:54:13.346Z,103246.59
2019-03-28T13:56:43.093Z,103251.08
2019-03-28T13:59:12.787Z,103245.22
2019-03-28T14:01:42.474Z,103244.25
2019-03-28T14:04:12.161Z,103240.17
2019-03-28T14:06:41.920Z,103234.73
2019-03-28T14:09:11.629Z,103230.88
2019-03-28T14:11:41.304Z,103225.09
2019-03-28T14:14:11.100Z,103224.03
2019-03-28T14:16:40.777Z,103218.57
2019-03-28T14:19:10.487Z,103220.14
2019-03-28T14:21:40.241Z,103222.74
2019-03-28T14:24:11.712Z,103224.15
2019-03-28T14:26:41.322Z,103225.47
2019-03-28T14:29:10.997Z,103227.70
2019-03-28T14:31:40.679Z,103223.28
2019-03-28T14:34:10.395Z,103226.95
2019-03-28T14:36:40.185Z,103225.80
2019-03-28T14:39:09.954Z,103226.30
2019-03-28T14:41:39.669Z,103231.20
2019-03-28T14:44:09.353Z,103230.18
2019-03-28T14:46:39.221Z,103225.84
2019-03-28T14:49:08.921Z,103226.02
2019-03-28T14:51:38.804Z,103228.91
2019-03-28T14:54:08.541Z,103224.08
2019-03-28T14:56:39.076Z,103222.52
2019-03-28T14:59:09.901Z,103218.50
2019-03-28T15:01:39.682Z,103212.59
2019-03-28T15:04:09.489Z,103218.94
2019-03-28T15:06:39.236Z,103218.73
2019-03-28T15:09:09.854Z,103212.62
2019-03-28T15:11:39.679Z,103215.42
2019-03-28T15:14:09.402Z,103214.39
2019-03-28T15:16:39.061Z,103209.35
2019-03-28T15:19:08.844Z,103204.73
2019-03-28T15:21:38.516Z,103202.67
2019-03-28T15:24:08.212Z,103209.64
2019-03-28T15:26:37.907Z,103209.45
2019-03-28T15:29:07.636Z,103212.74
2019-03-28T15:31:37.344Z,103211.70
2019-03-28T15:34:07.030Z,103216.12
2019-03-28T15:36:36.726Z,103222.52
2019-03-28T15:39:08.050Z,103219.14
2019-03-28T15:41:37.909Z,103224.47
2019-03-28T15:44:07.597Z,103221.72
2019-03-28T15:46:37.355Z,103221.92
2019-03-28T15:49:07.089Z,103221.97
2019-03-28T15:51:37.632Z,103227.08
2019-03-28T15:54:07.368Z,103224.98
2019-03-28T15:56:37.045Z,103227.71
2019-03-28T15:59:06.742Z,103225.11
2019-03-28T16:01:36.617Z,103223.34
2019-03-28T16:04:06.386Z,103222.27
2019-03-28T16:06:36.063Z,103221.98
2019-03-28T16:09:07.401Z,103228.20
2019-03-28T16:11:37.060Z,103220.98
2019-03-28T16:14:06.757Z,103224.86
2019-03-28T16:16:36.450Z,103224.98
2019-03-28T16:19:06.172Z,103224.24
2019-03-28T16:21:35.983Z,103222.05
2019-03-28T16:24:05.720Z,103222.17
2019-03-28T16:26:35.385Z,103226.43
2019-03-28T16:29:05.109Z,103220.98
2019-03-28T16:31:34.850Z,103219.34
2019-03-28T16:34:07.076Z,103220.65
2019-03-28T16:36:36.009Z,103218.92
2019-03-28T16:39:06.867Z,103220.41
2019-03-28T16:41:37.034Z,103222.91
2019-03-28T16:44:06.893Z,103225.64
2019-03-28T16:46:36.649Z,103220.89
2019-03-28T16:49:06.421Z,103222.74
2019-03-28T16:51:38.149Z,103222.86
2019-03-28T16:54:07.872Z,103225.09
2019-03-28T16:56:37.549Z,103227.77
2019-03-28T16:59:07.237Z,103221.70
2019-03-28T17:01:37.006Z,103222.77
2019-03-28T17:04:19.725Z,103221.83
2019-03-28T17:06:38.626Z,103221.00
2019-03-28T17:09:09.580Z,103227.92
2019-03-28T17:11:39.478Z,103228.87
2019-03-28T17:14:09.152Z,103224.03
2019-03-28T17:16:39.008Z,103233.19
2019-03-28T17:19:08.708Z,103229.10
2019-03-28T17:21:39.737Z,103231.60
2019-03-28T17:24:09.704Z,103232.55
2019-03-28T17:26:39.416Z,103232.30
2019-03-28T17:29:09.123Z,103237.28
2019-03-28T17:31:38.872Z,103243.66
2019-03-28T17:34:08.548Z,103237.31
2019-03-28T17:36:38.263Z,103243.44
2019-03-28T17:39:08.159Z,103246.20
2019-03-28T17:41:37.927Z,103248.51
2019-03-28T17:44:07.951Z,103242.39
2019-03-28T17:46:37.769Z,103246.66
2019-03-28T17:49:07.458Z,103241.89
2019-03-28T17:51:40.326Z,103238.94
2019-03-28T17:54:08.591Z,103250.05
2019-03-28T17:56:38.276Z,103245.17
2019-03-28T17:59:08.041Z,103248.70
2019-03-28T18:01:37.556Z,103252.02
2019-03-28T18:04:07.331Z,103253.37
2019-03-28T18:06:37.031Z,103255.78
2019-03-28T18:09:07.868Z,103255.97
2019-03-28T18:11:37.653Z,103261.44
2019-03-28T18:14:07.395Z,103264.74
2019-03-28T18:16:37.156Z,103273.77
2019-03-28T18:19:06.946Z,103272.16
2019-03-28T18:21:36.728Z,103276.38
2019-03-28T18:24:06.795Z,103276.17
2019-03-28T18:26:36.487Z,103278.02
2019-03-28T18:29:06.250Z,103273.11
2019-03-28T18:31:49.352Z,103279.20
2019-03-28T18:34:07.404Z,103278.53
2019-03-28T18:36:37.119Z,103273.55
2019-03-28T18:39:07.187Z,103270.94
2019-03-28T18:41:37.042Z,103279.74
2019-03-28T18:44:06.990Z,103280.75
2019-03-28T18:46:46.996Z,103278.69
2019-03-28T18:49:16.687Z,103286.16
2019-03-28T18:51:46.603Z,103292.20
2019-03-28T18:54:20.012Z,103294.73
2019-03-28T18:56:51.373Z,103300.22
2019-03-28T18:59:21.141Z,103302.78
2019-03-28T19:01:53.711Z,103305.78
2019-03-28T19:04:28.438Z,103306.88
2019-03-28T19:06:58.152Z,103310.05
2019-03-28T19:09:27.949Z,103305.13
2019-03-28T19:11:57.813Z,103307.23
2019-03-28T19:14:27.630Z,103306.61
2019-03-28T19:17:02.130Z,103308.66
2019-03-28T19:19:39.536Z,103305.73
2019-03-28T19:22:06.528Z,103309.66
2019-03-28T19:24:39.057Z,103307.13
2019-03-28T19:27:09.258Z,103307.64
2019-03-28T19:29:39.146Z,103310.77
2019-03-28T19:32:10.723Z,103306.38
2019-03-28T19:34:40.677Z,103305.63
2019-03-28T19:37:11.191Z,103306.11
2019-03-28T19:39:41.060Z,103306.59
2019-03-28T19:42:13.212Z,103314.06
2019-03-28T19:44:43.082Z,103314.52
2019-03-28T19:47:12.849Z,103320.52
2019-03-28T19:49:43.806Z,103312.31
2019-03-28T19:52:13.510Z,103317.83
2019-03-28T19:54:43.234Z,103316.36
2019-03-28T19:57:13.207Z,103314.67
2019-03-28T19:59:43.035Z,103320.19
2019-03-28T20:02:14.374Z,103311.73
2019-03-28T20:04:44.372Z,103319.88
2019-03-28T20:07:21.590Z,103320.05
2019-03-28T20:09:45.752Z,103315.16
2019-03-28T20:12:15.489Z,103325.31
2019-03-28T20:14:48.788Z,103321.41
2019-03-28T20:17:18.464Z,103316.50
2019-03-28T20:19:48.280Z,103322.01
2019-03-28T20:22:18.027Z,103335.83
2019-03-28T20:24:47.714Z,103328.22
2019-03-28T20:27:17.852Z,103336.61
2019-03-28T20:29:47.584Z,103333.95
2019-03-28T20:32:17.336Z,103336.75
2019-03-28T20:34:49.127Z,103340.76
2019-03-28T20:37:18.499Z,103348.87
2019-03-28T20:39:53.641Z,103347.94
2019-03-28T20:42:23.435Z,103350.59
2019-03-28T20:44:54.919Z,103346.75
2019-03-28T20:47:26.285Z,103350.22
2019-03-28T20:49:58.830Z,103350.98
2019-03-28T20:52:30.152Z,103350.44
2019-03-28T20:54:59.988Z,103343.19
2019-03-28T20:57:29.704Z,103351.23
2019-03-28T20:59:59.481Z,103345.09
2019-03-28T21:02:30.946Z,103346.42
2019-03-28T21:05:02.232Z,103336.96
2019-03-28T21:07:32.938Z,103338.83
2019-03-28T21:10:06.041Z,103337.95
2019-03-28T21:12:35.782Z,103336.86
2019-03-28T21:15:07.612Z,103339.23
2019-03-28T21:17:37.386Z,103338.61
2019-03-28T21:20:07.601Z,103341.33
2019-03-28T21:22:39.166Z,103339.59
2019-03-28T21:25:08.999Z,103345.94
2019-03-28T21:27:38.758Z,103348.66
2019-03-28T21:30:09.455Z,103344.59
2019-03-28T21:32:39.224Z,103344.65
2019-03-28T21:35:09.970Z,103347.87
2019-03-28T21:37:39.691Z,103351.69
2019-03-28T21:40:10.494Z,103348.53
2019-03-28T21:42:43.929Z,103348.55
2019-03-28T21:45:14.952Z,103344.55
2019-03-28T21:47:44.838Z,103339.97
2019-03-28T21:50:15.941Z,103349.45
2019-03-28T21:52:45.770Z,103343.61
2019-03-28T21:55:16.839Z,103340.90
2019-03-28T21:57:46.693Z,103343.61
2019-03-28T22:00:18.020Z,103343.31
2019-03-28T22:02:47.758Z,103351.77
2019-03-28T22:05:17.569Z,103343.63
2019-03-28T22:07:47.312Z,103326.97
2019-03-28T22:10:17.411Z,103333.80
2019-03-28T22:12:47.114Z,103330.19
2019-03-28T22:15:16.914Z,103330.75
2019-03-28T22:17:46.701Z,103325.43
2019-03-28T22:20:17.278Z,103327.21
2019-03-28T22:22:47.707Z,103328.28
2019-03-28T22:25:17.531Z,103321.10
2019-03-28T22:27:47.693Z,103314.41
2019-03-28T22:30:17.768Z,103316.70
2019-03-28T22:32:47.627Z,103319.48
2019-03-28T22:35:17.450Z,103311.94
2019-03-28T22:37:47.192Z,103313.38
2019-03-28T22:40:16.903Z,103306.67
2019-03-28T22:42:46.732Z,103302.19
2019-03-28T22:45:17.987Z,103299.56
2019-03-28T22:47:48.297Z,103302.27
2019-03-28T22:50:18.176Z,103305.40
2019-03-28T22:52:48.987Z,103301.42
2019-03-28T22:55:18.691Z,103303.72
2019-03-28T22:57:48.444Z,103300.64
2019-03-28T23:00:19.684Z,103304.14
2019-03-28T23:02:49.478Z,103295.59
2019-03-28T23:05:19.457Z,103295.17
2019-03-28T23:07:49.277Z,103294.64
2019-03-28T23:10:20.954Z,103305.50
2019-03-28T23:12:50.611Z,103301.09
2019-03-28T23:15:21.948Z,103297.94
2019-03-28T23:17:51.998Z,103296.16
2019-03-28T23:20:21.827Z,103292.59
2019-03-28T23:22:51.600Z,103296.59
2019-03-28T23:25:21.389Z,103288.39
2019-03-28T23:27:51.224Z,103288.45
2019-03-28T23:30:20.961Z,103286.27
2019-03-28T23:32:50.663Z,103284.48
2019-03-28T23:35:20.497Z,103276.44
2019-03-28T23:37:50.298Z,103279.23
2019-03-28T23:40:20.061Z,103275.73
2019-03-28T23:42:49.782Z,103279.81
2019-03-28T23:45:19.787Z,103282.52
2019-03-28T23:47:49.833Z,103274.45
2019-03-28T23:50:19.553Z,103267.27
2019-03-28T23:52:51.388Z,103267.33
2019-03-28T23:55:21.142Z,103258.80
2019-03-28T23:57:50.876Z,103264.84
